Terminal Aerodrome Forecast
Issued by NWS Melbourne, FL

Home | Current Version | Previous Version | Text Only | Print | Product List | Glossary On
Versions: 1 2 3 4 5 6 7 8 9 10 11 12 13 14 15
000
FTUS42 KMLB 201740
TAFDAB
TAF
KDAB 201740Z 2018/2118 08009KT P6SM SCT030 BKN150
     FM202300 12005KT P6SM VCSH SCT025 SCT150 OVC200
     FM210300 10003KT P6SM FEW020 BKN100 OVC200
     FM211500 12006KT P6SM SCT030 SCT120=

USA.gov is the U.S. government's official web portal to all federal, state and local government web resources and services.